Time;durP1;ratioP1;P1;durP2;ratioP2;P2;SDS_P1;SDS_P2;PMS_P1;PMS_P2;Temp;Humidity;BMP_temperature;BMP_pressure;BME280_temperature;BME280_humidity;BME280_pressure;Samples;Min_cycle;Max_cycle;Signal;HPM_P1;HPM_P2
2023/09/15 00:02:19;;;;;;;7.75;7.20;;;16.10;99.90;;;;;;5226768;28;20127;-84
2023/09/15 00:04:50;;;;;;;6.95;6.38;;;16.10;99.90;;;;;;5226465;28;20449;-86
2023/09/15 00:07:21;;;;;;;8.18;7.20;;;16.00;99.90;;;;;;5226884;28;20053;-79
2023/09/15 00:09:52;;;;;;;6.60;6.00;;;15.90;99.90;;;;;;5227000;28;20049;-82
2023/09/15 00:12:23;;;;;;;7.65;6.60;;;16.20;99.90;;;;;;5225250;28;20040;-76
2023/09/15 00:14:54;;;;;;;6.93;6.32;;;16.20;99.90;;;;;;5226739;28;20025;-80
2023/09/15 00:17:25;;;;;;;7.43;6.70;;;16.30;99.90;;;;;;5224667;28;20065;-81
2023/09/15 00:19:56;;;;;;;8.63;7.95;;;16.20;99.90;;;;;;5225817;28;20100;-85
2023/09/15 00:22:27;;;;;;;7.57;6.32;;;16.30;99.90;;;;;;5226229;28;20029;-81
2023/09/15 00:24:57;;;;;;;7.65;6.88;;;16.10;99.90;;;;;;5225706;28;20029;-79
2023/09/15 00:27:28;;;;;;;7.70;7.10;;;15.90;99.90;;;;;;5225997;28;20025;-79
2023/09/15 00:29:59;;;;;;;7.53;6.82;;;15.90;99.90;;;;;;5226525;28;20823;-86
2023/09/15 00:32:30;;;;;;;7.80;7.10;;;16.10;99.90;;;;;;5225205;28;20029;-81
2023/09/15 00:35:01;;;;;;;8.40;7.40;;;16.10;99.90;;;;;;5226298;28;20137;-78
2023/09/15 00:37:35;;;;;;;7.85;7.15;;;16.00;99.90;;;;;;5226686;28;20090;-74
2023/09/15 00:40:10;;;;;;;7.47;6.88;;;16.00;99.90;;;;;;5230978;28;20032;-75
2023/09/15 00:42:53;;;;;;;7.88;7.18;;;16.20;99.90;;;;;;5229544;28;20837;-75
2023/09/15 00:45:25;;;;;;;8.05;7.25;;;16.30;99.90;;;;;;5230658;28;20025;-77
2023/09/15 00:47:57;;;;;;;7.38;6.68;;;16.10;99.90;;;;;;5229408;28;20087;-85
2023/09/15 00:50:31;;;;;;;7.28;6.68;;;16.00;99.90;;;;;;5230155;28;20009;-84
2023/09/15 00:53:08;;;;;;;8.05;7.10;;;16.10;99.90;;;;;;5230463;28;20500;-79
2023/09/15 00:55:41;;;;;;;7.70;6.82;;;16.20;99.90;;;;;;5230184;28;20071;-85
2023/09/15 00:58:12;;;;;;;7.85;7.03;;;16.00;99.90;;;;;;5229154;28;20083;-81
2023/09/15 01:00:44;;;;;;;7.20;6.60;;;16.20;99.90;;;;;;5230065;28;20357;-84
2023/09/15 01:03:18;;;;;;;7.88;7.18;;;16.20;99.90;;;;;;5228737;28;20047;-83
2023/09/15 01:05:49;;;;;;;7.18;6.45;;;16.30;99.90;;;;;;5230022;28;20496;-83
2023/09/15 01:08:20;;;;;;;7.57;6.85;;;16.10;99.90;;;;;;5230007;28;20053;-85
2023/09/15 01:10:51;;;;;;;8.60;7.72;;;15.80;99.90;;;;;;5230004;28;20053;-84
2023/09/15 01:13:22;;;;;;;7.60;6.90;;;15.50;99.90;;;;;;5229508;28;20026;-85
2023/09/15 01:16:27;;;;;;;8.23;7.43;;;15.70;99.90;;;;;;5227856;28;20029;-78
2023/09/15 01:19:13;;;;;;;8.98;6.88;;;15.90;99.90;;;;;;5229281;28;20105;-86
2023/09/15 01:22:03;;;;;;;7.53;6.82;;;15.90;99.90;;;;;;5229323;28;20096;-83
2023/09/15 01:24:41;;;;;;;8.15;6.93;;;15.90;99.90;;;;;;5228164;28;20161;-82
2023/09/15 01:27:39;;;;;;;7.95;7.15;;;15.80;99.90;;;;;;5228541;28;20377;-79
2023/09/15 01:30:11;;;;;;;8.45;7.63;;;15.50;99.90;;;;;;5230051;28;20024;-82
2023/09/15 01:32:43;;;;;;;11.05;7.75;;;15.50;99.90;;;;;;5228686;28;20129;-78
2023/09/15 01:35:14;;;;;;;6.97;6.32;;;15.40;99.90;;;;;;5229622;28;20123;-77
2023/09/15 01:37:45;;;;;;;8.07;7.38;;;15.30;99.90;;;;;;5229995;28;20504;-78
2023/09/15 01:40:16;;;;;;;8.60;6.97;;;15.60;99.90;;;;;;5229912;28;20080;-86
2023/09/15 01:42:50;;;;;;;6.95;6.25;;;15.50;99.90;;;;;;5229380;28;20051;-84
2023/09/15 01:45:21;;;;;;;7.82;7.03;;;15.70;99.90;;;;;;5229595;28;20025;-82
2023/09/15 01:47:52;;;;;;;7.60;6.90;;;15.80;99.90;;;;;;5229853;28;20025;-75
2023/09/15 01:50:24;;;;;;;8.07;7.28;;;15.70;99.90;;;;;;5229378;28;20036;-79
2023/09/15 01:52:56;;;;;;;7.07;6.43;;;15.40;99.90;;;;;;5228380;28;20021;-85
2023/09/15 01:55:28;;;;;;;7.07;6.38;;;15.70;99.90;;;;;;5229286;28;20056;-78
2023/09/15 01:57:59;;;;;;;8.18;6.97;;;15.40;99.90;;;;;;5228185;28;20056;-84
2023/09/15 02:00:37;;;;;;;7.53;6.82;;;15.50;99.90;;;;;;5229644;28;20037;-83
2023/09/15 02:03:08;;;;;;;7.60;6.78;;;15.50;99.90;;;;;;5229015;28;20017;-83
2023/09/15 02:05:39;;;;;;;8.27;6.60;;;15.50;99.90;;;;;;5227147;28;20111;-85
2023/09/15 02:08:10;;;;;;;7.22;6.53;;;15.60;99.90;;;;;;5227449;28;20056;-81
2023/09/15 02:10:41;;;;;;;7.43;6.82;;;15.70;99.90;;;;;;5228574;28;20056;-76
2023/09/15 02:13:11;;;;;;;7.88;7.07;;;15.70;99.90;;;;;;5228817;28;20021;-78
2023/09/15 02:15:42;;;;;;;7.15;6.60;;;15.60;99.90;;;;;;5227305;28;20152;-77
2023/09/15 02:18:13;;;;;;;7.93;7.22;;;15.50;99.90;;;;;;5228464;28;20044;-81
2023/09/15 02:20:52;;;;;;;6.70;6.10;;;15.30;99.90;;;;;;5227245;28;20051;-78
2023/09/15 02:23:24;;;;;;;7.63;6.95;;;15.30;99.90;;;;;;5228843;28;20480;-84
2023/09/15 02:25:55;;;;;;;8.25;7.43;;;15.10;99.90;;;;;;5227360;28;20096;-84
2023/09/15 02:28:26;;;;;;;7.43;6.78;;;15.20;99.90;;;;;;5229010;28;20017;-77
2023/09/15 02:30:57;;;;;;;7.60;6.85;;;15.30;99.90;;;;;;5227602;28;20028;-76
2023/09/15 02:33:28;;;;;;;8.68;7.40;;;15.20;99.90;;;;;;5227429;28;20026;-79
2023/09/15 02:35:59;;;;;;;9.27;6.00;;;15.40;99.90;;;;;;5228575;28;20041;-83
2023/09/15 02:38:30;;;;;;;7.60;6.90;;;15.10;99.90;;;;;;5228725;28;20037;-83
2023/09/15 02:41:01;;;;;;;8.00;7.10;;;15.10;99.90;;;;;;5227543;28;20028;-81
2023/09/15 02:43:32;;;;;;;8.18;7.30;;;15.10;99.90;;;;;;5228152;28;20484;-84
2023/09/15 02:46:04;;;;;;;7.35;6.65;;;15.10;99.90;;;;;;5228729;28;20090;-76
2023/09/15 02:48:35;;;;;;;8.07;7.35;;;15.20;99.90;;;;;;5228543;28;20029;-84
2023/09/15 02:51:05;;;;;;;8.88;6.68;;;15.40;99.90;;;;;;5227007;28;20047;-85
2023/09/15 02:53:36;;;;;;;8.07;7.20;;;15.20;99.90;;;;;;5228296;28;20021;-86
2023/09/15 02:56:08;;;;;;;10.43;7.40;;;15.10;99.90;;;;;;5228488;28;20039;-86
2023/09/15 02:58:39;;;;;;;8.30;7.50;;;14.90;99.90;;;;;;5228136;28;20045;-76
2023/09/15 03:01:13;;;;;;;8.63;7.60;;;15.10;99.90;;;;;;5227179;28;20061;-80
2023/09/15 03:03:48;;;;;;;8.93;7.55;;;15.30;99.90;;;;;;5227647;28;20009;-77
2023/09/15 03:06:19;;;;;;;7.53;6.82;;;15.40;99.90;;;;;;5226499;28;20408;-81
2023/09/15 03:08:50;;;;;;;7.22;6.53;;;15.10;99.90;;;;;;5228052;28;20063;-83
2023/09/15 03:11:22;;;;;;;9.30;7.57;;;15.00;99.90;;;;;;5228032;28;20488;-84
2023/09/15 03:13:53;;;;;;;10.18;7.43;;;14.90;99.90;;;;;;5228102;28;20043;-80
2023/09/15 03:16:26;;;;;;;8.93;8.13;;;15.10;99.90;;;;;;5227807;28;20029;-82
2023/09/15 03:18:56;;;;;;;7.80;7.10;;;15.30;99.90;;;;;;5227923;28;20028;-84
2023/09/15 03:21:28;;;;;;;8.45;7.45;;;14.80;99.90;;;;;;5226391;28;20484;-77
2023/09/15 03:24:00;;;;;;;8.45;7.75;;;15.00;99.90;;;;;;5227760;28;20117;-85
2023/09/15 03:26:30;;;;;;;8.13;7.32;;;14.90;99.90;;;;;;5226488;28;20021;-85
2023/09/15 03:29:02;;;;;;;10.68;8.30;;;15.00;99.90;;;;;;5227747;28;20472;-78
2023/09/15 03:31:33;;;;;;;8.63;7.65;;;15.10;99.90;;;;;;5227690;28;20032;-75
2023/09/15 03:34:04;;;;;;;8.23;7.53;;;15.00;99.90;;;;;;5227756;28;20116;-86
2023/09/15 03:36:36;;;;;;;9.35;8.18;;;15.10;99.90;;;;;;5227170;28;20564;-86
2023/09/15 03:39:07;;;;;;;9.52;8.57;;;14.90;99.90;;;;;;5227589;28;20025;-78
2023/09/15 03:41:38;;;;;;;8.25;7.32;;;14.90;99.90;;;;;;5227494;28;20025;-85
2023/09/15 03:44:10;;;;;;;8.32;7.53;;;15.30;99.90;;;;;;5227446;28;20025;-83
2023/09/15 03:46:41;;;;;;;9.70;7.07;;;15.20;99.90;;;;;;5227538;28;20128;-85
2023/09/15 03:49:12;;;;;;;9.23;7.63;;;15.00;99.90;;;;;;5225810;28;20069;-78
2023/09/15 03:51:43;;;;;;;8.02;7.32;;;14.80;99.90;;;;;;5227210;28;20056;-85
2023/09/15 03:54:16;;;;;;;7.97;7.25;;;15.00;99.90;;;;;;5226854;28;20036;-75
2023/09/15 03:56:47;;;;;;;8.75;7.60;;;15.10;99.90;;;;;;5226892;28;20041;-81
2023/09/15 03:59:18;;;;;;;9.20;8.27;;;15.00;99.90;;;;;;5225209;28;20043;-80
2023/09/15 04:01:48;;;;;;;7.53;6.72;;;14.90;99.90;;;;;;5225639;28;20369;-86
2023/09/15 04:04:19;;;;;;;8.38;7.57;;;15.20;99.90;;;;;;5227098;28;20037;-86
2023/09/15 04:06:51;;;;;;;8.70;7.90;;;15.10;99.90;;;;;;5225537;28;20057;-84
2023/09/15 04:09:24;;;;;;;9.50;7.47;;;15.20;99.90;;;;;;5225644;28;20532;-80
2023/09/15 04:11:55;;;;;;;7.85;7.05;;;15.30;99.90;;;;;;5226286;28;20034;-78
2023/09/15 04:14:26;;;;;;;7.50;6.53;;;15.40;99.90;;;;;;5231446;28;20017;-83
2023/09/15 04:16:57;;;;;;;9.40;7.28;;;15.40;99.90;;;;;;5231314;28;20396;-76
2023/09/15 04:19:29;;;;;;;9.00;7.18;;;15.40;99.90;;;;;;5231340;28;20092;-75
2023/09/15 04:21:59;;;;;;;7.55;6.72;;;15.30;99.90;;;;;;5231144;28;20377;-76
2023/09/15 04:24:30;;;;;;;10.43;7.55;;;15.10;99.90;;;;;;5229518;28;20028;-82
2023/09/15 04:27:01;;;;;;;8.38;7.55;;;15.20;99.90;;;;;;5229505;28;20029;-85
2023/09/15 04:29:32;;;;;;;10.75;7.47;;;15.10;99.90;;;;;;5230983;28;20484;-86
2023/09/15 04:32:04;;;;;;;8.18;7.40;;;15.50;99.90;;;;;;5231240;28;20032;-84
2023/09/15 04:34:34;;;;;;;7.88;7.18;;;15.60;99.90;;;;;;5230287;28;20078;-85
2023/09/15 04:37:05;;;;;;;9.75;7.57;;;15.60;99.90;;;;;;5229565;28;20070;-76
2023/09/15 04:39:36;;;;;;;12.35;7.57;;;15.80;99.90;;;;;;5229482;28;20670;-77
2023/09/15 04:42:09;;;;;;;8.18;7.38;;;15.90;99.90;;;;;;5230858;28;20040;-84
2023/09/15 04:44:40;;;;;;;9.73;8.18;;;16.00;99.90;;;;;;5230890;28;20021;-86
2023/09/15 04:47:13;;;;;;;8.50;7.57;;;15.90;99.90;;;;;;5230701;28;20033;-83
2023/09/15 04:49:43;;;;;;;9.52;8.52;;;15.90;99.90;;;;;;5230877;28;20027;-85
2023/09/15 04:52:14;;;;;;;9.77;8.77;;;16.10;99.90;;;;;;5229881;28;20435;-76
2023/09/15 04:54:45;;;;;;;9.52;8.45;;;16.30;99.90;;;;;;5228531;28;20443;-76
2023/09/15 04:57:16;;;;;;;8.55;7.75;;;16.40;99.90;;;;;;5230060;28;20059;-84
2023/09/15 04:59:48;;;;;;;10.10;8.75;;;16.40;99.90;;;;;;5229955;28;21027;-75
2023/09/15 05:02:23;;;;;;;9.38;8.48;;;16.40;99.90;;;;;;5230450;28;20029;-86
2023/09/15 05:04:54;;;;;;;11.38;9.30;;;16.40;99.90;;;;;;5230443;28;20028;-86
2023/09/15 05:07:25;;;;;;;10.70;9.52;;;16.50;99.90;;;;;;5229797;28;20040;-75
2023/09/15 05:09:56;;;;;;;20.52;9.75;;;16.60;99.90;;;;;;5229925;28;20033;-84
2023/09/15 05:12:27;;;;;;;11.85;9.68;;;16.80;99.90;;;;;;5228288;28;20028;-86
2023/09/15 05:14:57;;;;;;;16.30;9.43;;;16.90;99.90;;;;;;5228122;28;20036;-87
2023/09/15 05:17:29;;;;;;;12.50;10.48;;;16.90;99.90;;;;;;5229244;28;20087;-84
2023/09/15 05:20:00;;;;;;;11.25;10.15;;;17.00;99.90;;;;;;5229369;28;20427;-83
2023/09/15 05:22:30;;;;;;;14.68;9.70;;;17.00;99.90;;;;;;5228214;28;20029;-79
2023/09/15 05:25:04;;;;;;;10.88;9.60;;;17.30;99.90;;;;;;5233404;28;20075;-80
2023/09/15 05:27:35;;;;;;;16.23;9.93;;;17.60;99.90;;;;;;5229940;28;20083;-81
2023/09/15 05:30:07;;;;;;;19.58;10.95;;;17.70;99.90;;;;;;5233767;28;20033;-77
2023/09/15 05:32:38;;;;;;;13.25;10.55;;;17.80;99.90;;;;;;5217938;28;20028;-80
2023/09/15 05:35:10;;;;;;;12.13;10.73;;;17.90;99.90;;;;;;5227850;28;20057;-80
2023/09/15 05:37:41;;;;;;;13.75;11.30;;;17.90;99.90;;;;;;5227771;28;20037;-81
2023/09/15 05:40:12;;;;;;;14.52;10.15;;;18.00;99.90;;;;;;5229776;28;20408;-86
2023/09/15 05:42:43;;;;;;;11.88;10.68;;;18.10;99.90;;;;;;5229912;28;20060;-86
2023/09/15 05:45:15;;;;;;;12.07;10.88;;;18.10;99.90;;;;;;5226519;28;20476;-78
2023/09/15 05:47:46;;;;;;;11.48;10.07;;;18.20;99.90;;;;;;5236884;28;20060;-80
2023/09/15 05:50:17;;;;;;;11.93;10.75;;;18.20;99.90;;;;;;5229831;28;20429;-87
2023/09/15 05:52:48;;;;;;;13.27;10.27;;;18.40;99.90;;;;;;5231964;28;20048;-84
2023/09/15 05:55:19;;;;;;;11.60;10.45;;;18.50;99.90;;;;;;5227894;28;20063;-78
2023/09/15 05:57:50;;;;;;;11.20;10.20;;;18.90;99.90;;;;;;5228334;28;20497;-85
2023/09/15 06:00:22;;;;;;;11.73;10.63;;;18.90;99.90;;;;;;5228173;28;20027;-85
2023/09/15 06:02:52;;;;;;;11.18;10.18;;;19.00;99.90;;;;;;5229626;28;20025;-88
2023/09/15 06:05:25;;;;;;;11.65;10.55;;;19.00;99.90;;;;;;5229310;28;20076;-86
2023/09/15 06:07:56;;;;;;;12.48;11.20;;;19.30;99.90;;;;;;5229652;28;20033;-87
2023/09/15 06:10:26;;;;;;;12.20;11.10;;;19.30;99.90;;;;;;5229251;28;20539;-81
2023/09/15 06:12:57;;;;;;;13.88;12.68;;;19.30;99.90;;;;;;5228381;28;20398;-84
2023/09/15 06:15:29;;;;;;;13.75;12.55;;;19.50;99.90;;;;;;5227872;28;20021;-84
2023/09/15 06:18:03;;;;;;;14.82;12.77;;;19.60;99.90;;;;;;5229037;28;20119;-85
2023/09/15 06:20:34;;;;;;;13.15;12.07;;;19.90;99.90;;;;;;5227594;28;20013;-85
2023/09/15 06:23:05;;;;;;;14.68;13.38;;;20.20;99.90;;;;;;5228595;28;20530;-84
2023/09/15 06:25:36;;;;;;;13.00;11.95;;;20.30;99.90;;;;;;5228774;28;20025;-81
2023/09/15 06:28:07;;;;;;;12.68;11.55;;;20.50;99.90;;;;;;5225696;28;20033;-81
2023/09/15 06:30:38;;;;;;;12.60;11.50;;;20.60;99.90;;;;;;5228844;28;20350;-79
2023/09/15 06:33:09;;;;;;;12.43;11.30;;;20.80;99.90;;;;;;5228901;28;20029;-81
2023/09/15 06:35:40;;;;;;;15.48;12.30;;;21.00;99.90;;;;;;5226232;28;20123;-79
2023/09/15 06:38:11;;;;;;;15.02;11.82;;;21.10;99.90;;;;;;5228730;28;20424;-80
2023/09/15 06:40:44;;;;;;;12.93;11.45;;;21.00;99.90;;;;;;5228572;28;20500;-80
2023/09/15 06:43:15;;;;;;;13.10;11.20;;;21.30;99.90;;;;;;5228255;28;20179;-79
2023/09/15 06:45:46;;;;;;;11.55;10.35;;;21.50;99.90;;;;;;5227294;28;20536;-77
2023/09/15 06:48:17;;;;;;;12.73;10.95;;;21.50;99.90;;;;;;5226528;28;20032;-79
2023/09/15 06:50:48;;;;;;;11.85;10.68;;;21.80;99.90;;;;;;5226918;28;20025;-80
2023/09/15 06:53:19;;;;;;;11.35;10.25;;;21.90;99.90;;;;;;5225229;28;20116;-77
2023/09/15 06:55:53;;;;;;;10.45;9.45;;;22.20;99.90;;;;;;5232355;28;20033;-77
2023/09/15 06:58:24;;;;;;;10.02;9.10;;;22.40;99.90;;;;;;5226185;28;20033;-77
2023/09/15 07:00:56;;;;;;;9.55;8.63;;;22.50;99.90;;;;;;5227742;28;20442;-77
2023/09/15 07:03:27;;;;;;;11.00;7.93;;;22.70;99.90;;;;;;5226744;28;20427;-79
2023/09/15 07:05:57;;;;;;;9.00;7.70;;;22.90;99.90;;;;;;5221593;28;20045;-79
2023/09/15 07:08:28;;;;;;;8.20;7.38;;;23.10;99.90;;;;;;5226683;28;20025;-78
2023/09/15 07:11:00;;;;;;;10.57;8.95;;;23.10;99.90;;;;;;5223190;28;20500;-82
2023/09/15 07:13:31;;;;;;;11.13;8.65;;;23.20;99.90;;;;;;5227731;28;20029;-79
2023/09/15 07:16:02;;;;;;;9.10;8.20;;;23.20;99.90;;;;;;5227237;28;20439;-79
2023/09/15 07:18:33;;;;;;;9.60;7.57;;;23.40;99.90;;;;;;5228014;28;20028;-79
2023/09/15 07:21:04;;;;;;;9.52;7.90;;;23.40;99.90;;;;;;5227855;28;20400;-79
2023/09/15 07:23:35;;;;;;;10.43;8.18;;;23.60;99.90;;;;;;5226162;28;20029;-79
2023/09/15 07:26:06;;;;;;;11.48;7.10;;;24.30;99.90;;;;;;5227954;28;20071;-81
2023/09/15 07:28:37;;;;;;;8.25;7.45;;;23.90;99.90;;;;;;5237779;28;20033;-81
2023/09/15 07:31:10;;;;;;;8.35;7.40;;;24.00;99.90;;;;;;5223048;28;20032;-81
2023/09/15 07:33:44;;;;;;;10.88;9.88;;;24.00;99.90;;;;;;5227412;28;20032;-80
2023/09/15 07:36:15;;;;;;;12.35;11.15;;;24.20;99.90;;;;;;5209998;28;20396;-80
2023/09/15 07:38:46;;;;;;;15.40;13.95;;;24.20;99.90;;;;;;5227578;28;20044;-80
2023/09/15 07:41:17;;;;;;;13.52;12.50;;;24.40;99.90;;;;;;5226529;28;20095;-81
2023/09/15 07:43:48;;;;;;;12.52;11.30;;;24.60;99.90;;;;;;5216810;28;20082;-78
2023/09/15 07:46:20;;;;;;;11.98;10.40;;;24.60;99.90;;;;;;5225497;28;20021;-80
2023/09/15 07:48:50;;;;;;;9.88;9.07;;;24.70;99.90;;;;;;5227076;28;20047;-80
2023/09/15 07:51:21;;;;;;;9.40;8.48;;;24.80;99.90;;;;;;5225311;28;20111;-79
2023/09/15 07:53:53;;;;;;;10.68;9.57;;;24.80;99.90;;;;;;5228726;28;20039;-79
2023/09/15 07:56:24;;;;;;;10.55;9.48;;;24.80;99.90;;;;;;5227343;28;20485;-79
2023/09/15 07:58:55;;;;;;;8.38;7.57;;;25.00;99.90;;;;;;5227365;28;20384;-80
2023/09/15 08:01:25;;;;;;;10.90;7.75;;;25.00;99.90;;;;;;5225834;28;20025;-78
2023/09/15 08:03:56;;;;;;;9.88;8.55;;;25.10;99.90;;;;;;5226062;28;20110;-79
2023/09/15 08:06:28;;;;;;;10.70;9.60;;;25.10;99.90;;;;;;5226932;28;20057;-79
2023/09/15 08:09:00;;;;;;;8.68;7.88;;;25.20;99.90;;;;;;5226160;28;20052;-81
2023/09/15 08:11:37;;;;;;;10.55;9.55;;;25.30;99.90;;;;;;5218430;28;20039;-80
2023/09/15 08:14:08;;;;;;;12.07;9.23;;;25.40;99.90;;;;;;5219761;28;20079;-79
2023/09/15 08:16:39;;;;;;;10.35;8.77;;;25.50;99.90;;;;;;5227479;28;20021;-80
2023/09/15 08:19:10;;;;;;;8.95;7.88;;;25.60;99.90;;;;;;5227390;28;20401;-81
2023/09/15 08:21:41;;;;;;;13.10;8.35;;;25.60;99.90;;;;;;5227107;28;20086;-80
2023/09/15 08:24:12;;;;;;;8.85;8.00;;;25.50;99.90;;;;;;5226861;28;20531;-80
2023/09/15 08:26:43;;;;;;;9.15;7.65;;;25.60;99.90;;;;;;5223988;28;20024;-80
2023/09/15 08:29:14;;;;;;;8.55;7.75;;;25.80;99.90;;;;;;5224390;28;20024;-79
2023/09/15 08:31:46;;;;;;;10.52;9.73;;;25.90;99.90;;;;;;5224794;28;20025;-78
2023/09/15 08:34:17;;;;;;;9.10;8.30;;;26.00;99.90;;;;;;5221122;28;20124;-81
2023/09/15 08:36:48;;;;;;;11.82;10.65;;;25.80;99.90;;;;;;5226700;28;20544;-82
2023/09/15 08:39:19;;;;;;;11.65;10.65;;;25.90;99.90;;;;;;5227067;28;20056;-82
2023/09/15 08:42:00;;;;;;;10.57;9.63;;;26.00;99.90;;;;;;5227195;28;20514;-79
2023/09/15 08:44:32;;;;;;;13.07;10.13;;;26.30;99.90;;;;;;5220601;28;20064;-78
2023/09/15 08:47:05;;;;;;;11.07;10.02;;;26.30;99.90;;;;;;5226731;28;20431;-79
2023/09/15 08:49:36;;;;;;;13.30;12.23;;;26.50;99.90;;;;;;5226806;28;20021;-81
2023/09/15 08:52:07;;;;;;;12.48;11.45;;;26.60;99.90;;;;;;5227591;28;20043;-78
2023/09/15 08:54:39;;;;;;;14.32;12.82;;;26.50;99.90;;;;;;5214047;28;20063;-80
2023/09/15 08:57:16;;;;;;;13.70;12.50;;;26.60;99.90;;;;;;5224127;28;20041;-81
2023/09/15 08:59:49;;;;;;;11.98;10.90;;;26.60;99.90;;;;;;5211671;28;20457;-81
2023/09/15 09:02:22;;;;;;;11.40;10.40;;;26.70;99.90;;;;;;5230351;28;20029;-81
2023/09/15 09:04:53;;;;;;;9.02;8.30;;;26.80;99.90;;;;;;5228844;28;20039;-81
2023/09/15 09:07:26;;;;;;;8.00;7.20;;;26.80;99.90;;;;;;5229011;28;20045;-80
2023/09/15 09:09:57;;;;;;;8.52;7.72;;;27.00;99.90;;;;;;5213397;28;20033;-79
2023/09/15 09:12:28;;;;;;;9.05;8.25;;;27.10;99.90;;;;;;5233659;28;20021;-79
2023/09/15 09:15:00;;;;;;;7.20;6.47;;;27.00;99.90;;;;;;5230467;28;20052;-80
2023/09/15 09:17:31;;;;;;;9.45;8.55;;;27.00;99.90;;;;;;5229244;28;20460;-80
2023/09/15 09:20:02;;;;;;;9.57;8.68;;;27.20;99.90;;;;;;5224258;28;20121;-80
2023/09/15 09:22:34;;;;;;;11.25;10.38;;;27.10;99.90;;;;;;5226974;28;20442;-81
2023/09/15 09:25:05;;;;;;;12.18;11.27;;;27.20;99.90;;;;;;5228788;28;20115;-80
2023/09/15 09:27:36;;;;;;;14.23;13.23;;;27.40;99.90;;;;;;5228528;28;20021;-81
2023/09/15 09:30:08;;;;;;;14.55;13.55;;;27.50;99.90;;;;;;5230033;28;20028;-80
2023/09/15 09:32:39;;;;;;;12.70;11.70;;;27.30;99.90;;;;;;5224489;28;20056;-80
2023/09/15 09:35:12;;;;;;;12.77;11.75;;;27.50;99.90;;;;;;5228337;28;20082;-81
2023/09/15 09:37:43;;;;;;;11.95;10.95;;;27.40;99.90;;;;;;5230211;28;20090;-80
2023/09/15 09:40:17;;;;;;;12.13;11.07;;;27.70;99.90;;;;;;5229619;28;20025;-79
2023/09/15 09:42:52;;;;;;;12.07;11.07;;;27.60;99.90;;;;;;5229420;28;20045;-79
2023/09/15 09:45:30;;;;;;;12.82;11.82;;;27.70;99.90;;;;;;5238549;28;20060;-80
2023/09/15 09:48:02;;;;;;;11.02;10.15;;;27.80;99.90;;;;;;5237228;28;20108;-79
2023/09/15 09:50:35;;;;;;;9.60;8.73;;;28.10;99.90;;;;;;5225648;28;20036;-80
2023/09/15 09:53:09;;;;;;;9.13;8.52;;;28.10;99.90;;;;;;5207765;28;20032;-80
2023/09/15 09:55:44;;;;;;;8.93;7.95;;;27.80;99.90;;;;;;5223835;28;20389;-79
2023/09/15 09:58:15;;;;;;;9.27;8.48;;;27.90;99.90;;;;;;5229459;28;20089;-79
2023/09/15 10:00:50;;;;;;;9.93;8.50;;;27.90;99.90;;;;;;5225811;28;20488;-79
2023/09/15 10:03:21;;;;;;;10.65;9.18;;;28.00;99.90;;;;;;5220995;28;20380;-79
2023/09/15 10:05:52;;;;;;;10.43;9.63;;;28.10;99.90;;;;;;5228986;28;20365;-80
2023/09/15 10:08:24;;;;;;;9.00;8.25;;;28.20;99.90;;;;;;5227416;28;20134;-79
2023/09/15 10:10:55;;;;;;;9.88;9.07;;;28.10;99.90;;;;;;5228150;28;20033;-78
2023/09/15 10:13:28;;;;;;;9.10;8.40;;;28.10;99.90;;;;;;5229159;28;20028;-80
2023/09/15 10:15:59;;;;;;;8.93;8.13;;;28.20;99.90;;;;;;5229297;28;20032;-80
2023/09/15 10:18:31;;;;;;;7.88;7.18;;;28.10;99.90;;;;;;5229328;28;20036;-79
2023/09/15 10:21:02;;;;;;;8.80;8.00;;;28.30;99.90;;;;;;5227904;28;20021;-80
2023/09/15 10:23:35;;;;;;;7.38;6.75;;;28.30;99.90;;;;;;5228591;28;20037;-82
2023/09/15 10:26:09;;;;;;;7.13;6.50;;;28.30;99.90;;;;;;5227598;28;20029;-79
2023/09/15 10:28:45;;;;;;;7.32;6.38;;;28.30;99.90;;;;;;5233861;28;20021;-79
2023/09/15 10:31:16;;;;;;;7.85;6.38;;;28.40;99.90;;;;;;5228785;28;20013;-80
2023/09/15 10:33:48;;;;;;;7.10;6.35;;;28.40;99.90;;;;;;5218319;28;20028;-80
2023/09/15 10:36:21;;;;;;;7.85;7.10;;;28.60;99.90;;;;;;5225109;28;20037;-79
2023/09/15 10:38:54;;;;;;;8.77;8.00;;;28.20;99.90;;;;;;5215953;28;20484;-81
2023/09/15 10:41:27;;;;;;;7.35;6.75;;;28.60;99.90;;;;;;5224617;28;20025;-77
2023/09/15 10:43:58;;;;;;;7.70;7.07;;;28.40;99.90;;;;;;5243981;28;20420;-81
2023/09/15 10:46:40;;;;;;;7.93;6.95;;;28.70;99.90;;;;;;5228729;28;20025;-81
2023/09/15 10:49:23;;;;;;;7.47;6.75;;;28.70;99.90;;;;;;5226138;28;20033;-78
2023/09/15 10:52:02;;;;;;;7.55;6.75;;;28.90;99.90;;;;;;5227428;28;20029;-78
2023/09/15 10:54:38;;;;;;;;;;;28.80;99.90;;;;;;5221747;28;20032;-78
2023/09/15 10:57:09;;;;;;;10.00;6.10;;;28.70;99.90;;;;;;5227996;28;19920;-77
2023/09/15 10:59:43;;;;;;;6.57;5.93;;;28.40;99.90;;;;;;5228222;28;20029;-79
2023/09/15 11:02:16;;;;;;;7.10;6.50;;;28.60;99.90;;;;;;5228106;28;20025;-81
2023/09/15 11:04:52;;;;;;;11.13;6.72;;;28.70;99.90;;;;;;5226432;28;20025;-82
2023/09/15 11:07:24;;;;;;;6.80;6.30;;;28.40;99.90;;;;;;5223626;28;20056;-82
2023/09/15 11:09:59;;;;;;;7.82;6.97;;;28.70;99.90;;;;;;5242538;28;20021;-82
2023/09/15 11:12:30;;;;;;;6.88;6.28;;;28.90;99.90;;;;;;5227951;28;20408;-82
2023/09/15 11:15:02;;;;;;;6.93;6.43;;;28.90;99.90;;;;;;5221792;28;20112;-81
2023/09/15 11:17:35;;;;;;;8.25;5.90;;;28.70;99.90;;;;;;5227683;28;20032;-81
2023/09/15 11:20:08;;;;;;;8.23;6.07;;;29.00;99.90;;;;;;5232102;28;20490;-79
2023/09/15 11:22:39;;;;;;;6.28;5.68;;;29.10;99.90;;;;;;5221965;28;20020;-83
2023/09/15 11:25:10;;;;;;;6.63;5.97;;;29.10;99.90;;;;;;5227669;28;20416;-83
2023/09/15 11:27:42;;;;;;;9.55;5.72;;;29.00;99.90;;;;;;5231442;28;20017;-83
2023/09/15 11:30:13;;;;;;;9.05;6.20;;;28.90;99.90;;;;;;5235435;28;20542;-82
2023/09/15 11:32:44;;;;;;;16.45;6.30;;;29.20;99.90;;;;;;5239844;28;20043;-78
2023/09/15 11:35:18;;;;;;;41.88;6.43;;;29.10;99.90;;;;;;5226299;28;20032;-82
2023/09/15 11:37:49;;;;;;;19.58;6.80;;;29.20;99.90;;;;;;5226741;28;20037;-80
2023/09/15 11:40:23;;;;;;;10.10;6.43;;;29.30;99.90;;;;;;5228201;28;20074;-81
2023/09/15 11:42:59;;;;;;;7.13;6.38;;;29.30;99.90;;;;;;5226182;28;20036;-81
2023/09/15 11:45:31;;;;;;;8.98;6.28;;;29.10;99.90;;;;;;5227511;28;20046;-78
2023/09/15 11:48:03;;;;;;;6.60;6.10;;;29.30;99.90;;;;;;5237653;28;20020;-80
2023/09/15 11:50:35;;;;;;;7.75;6.75;;;29.10;99.90;;;;;;5235302;28;20025;-81
2023/09/15 11:53:06;;;;;;;6.97;6.47;;;29.10;99.90;;;;;;5218619;28;20107;-79
2023/09/15 11:55:37;;;;;;;7.70;7.10;;;29.10;99.90;;;;;;5226520;28;20159;-80
2023/09/15 11:58:08;;;;;;;7.20;6.25;;;28.70;99.90;;;;;;5227481;28;20033;-80
2023/09/15 12:00:39;;;;;;;7.57;6.88;;;28.70;99.90;;;;;;5226629;28;20025;-80
2023/09/15 12:03:10;;;;;;;7.70;7.00;;;28.80;99.90;;;;;;5227311;28;20033;-79
2023/09/15 12:05:41;;;;;;;8.10;7.32;;;28.90;99.90;;;;;;5226909;28;20057;-80
2023/09/15 12:08:12;;;;;;;8.40;7.30;;;28.90;99.90;;;;;;5226525;28;20029;-80
